sensor_id;sensor_type;location;lat;lon;timestamp;P1;durP1;ratioP1;P2;durP2;ratioP2
75216;SDS011;63800;51.972;5.682;2023-03-12T00:01:00;6.03;;;4.30;;
75216;SDS011;63800;51.972;5.682;2023-03-12T00:03:25;6.43;;;4.30;;
75216;SDS011;63800;51.972;5.682;2023-03-12T00:05:51;6.97;;;4.45;;
75216;SDS011;63800;51.972;5.682;2023-03-12T00:08:16;6.15;;;4.38;;
75216;SDS011;63800;51.972;5.682;2023-03-12T00:10:41;10.80;;;4.20;;
75216;SDS011;63800;51.972;5.682;2023-03-12T00:13:07;6.45;;;4.15;;
75216;SDS011;63800;51.972;5.682;2023-03-12T00:15:38;6.72;;;4.47;;
75216;SDS011;63800;51.972;5.682;2023-03-12T00:18:04;7.45;;;4.30;;
75216;SDS011;63800;51.972;5.682;2023-03-12T00:20:30;9.75;;;4.40;;
75216;SDS011;63800;51.972;5.682;2023-03-12T00:22:56;8.80;;;4.53;;
75216;SDS011;63800;51.972;5.682;2023-03-12T00:25:21;5.60;;;3.83;;
75216;SDS011;63800;51.972;5.682;2023-03-12T00:27:46;5.15;;;4.03;;
75216;SDS011;63800;51.972;5.682;2023-03-12T00:30:12;8.30;;;4.47;;
75216;SDS011;63800;51.972;5.682;2023-03-12T00:32:38;7.70;;;4.25;;
75216;SDS011;63800;51.972;5.682;2023-03-12T00:35:04;7.18;;;3.85;;
75216;SDS011;63800;51.972;5.682;2023-03-12T00:37:30;8.38;;;3.67;;
75216;SDS011;63800;51.972;5.682;2023-03-12T00:39:57;8.93;;;3.78;;
75216;SDS011;63800;51.972;5.682;2023-03-12T00:42:23;6.75;;;4.03;;
75216;SDS011;63800;51.972;5.682;2023-03-12T00:44:49;7.38;;;3.92;;
75216;SDS011;63800;51.972;5.682;2023-03-12T00:47:14;6.00;;;3.53;;
75216;SDS011;63800;51.972;5.682;2023-03-12T00:49:39;6.03;;;3.47;;
75216;SDS011;63800;51.972;5.682;2023-03-12T00:52:05;5.80;;;3.60;;
75216;SDS011;63800;51.972;5.682;2023-03-12T00:54:31;5.22;;;3.60;;
75216;SDS011;63800;51.972;5.682;2023-03-12T00:56:56;5.53;;;3.70;;
75216;SDS011;63800;51.972;5.682;2023-03-12T00:59:21;5.70;;;3.70;;
75216;SDS011;63800;51.972;5.682;2023-03-12T01:01:47;6.22;;;3.55;;
75216;SDS011;63800;51.972;5.682;2023-03-12T01:04:13;8.02;;;3.65;;
75216;SDS011;63800;51.972;5.682;2023-03-12T01:06:39;5.30;;;3.60;;
75216;SDS011;63800;51.972;5.682;2023-03-12T01:09:05;5.05;;;3.22;;
75216;SDS011;63800;51.972;5.682;2023-03-12T01:11:31;6.68;;;3.78;;
75216;SDS011;63800;51.972;5.682;2023-03-12T01:13:58;6.28;;;3.50;;
75216;SDS011;63800;51.972;5.682;2023-03-12T01:16:25;5.35;;;3.50;;
75216;SDS011;63800;51.972;5.682;2023-03-12T01:18:53;7.35;;;3.50;;
75216;SDS011;63800;51.972;5.682;2023-03-12T01:21:20;7.72;;;4.07;;
75216;SDS011;63800;51.972;5.682;2023-03-12T01:23:45;5.95;;;3.88;;
75216;SDS011;63800;51.972;5.682;2023-03-12T01:26:11;5.85;;;3.80;;
75216;SDS011;63800;51.972;5.682;2023-03-12T01:28:36;4.50;;;3.70;;
75216;SDS011;63800;51.972;5.682;2023-03-12T01:31:09;4.55;;;3.33;;
75216;SDS011;63800;51.972;5.682;2023-03-12T01:33:36;6.55;;;3.65;;
75216;SDS011;63800;51.972;5.682;2023-03-12T01:36:02;6.00;;;3.58;;
75216;SDS011;63800;51.972;5.682;2023-03-12T01:38:28;6.72;;;3.60;;
75216;SDS011;63800;51.972;5.682;2023-03-12T01:40:53;6.40;;;3.70;;
75216;SDS011;63800;51.972;5.682;2023-03-12T01:51:15;6.45;;;3.65;;
75216;SDS011;63800;51.972;5.682;2023-03-12T01:53:44;4.97;;;3.47;;
75216;SDS011;63800;51.972;5.682;2023-03-12T01:56:12;6.47;;;3.80;;
75216;SDS011;63800;51.972;5.682;2023-03-12T01:58:39;5.18;;;3.72;;
75216;SDS011;63800;51.972;5.682;2023-03-12T02:01:09;6.15;;;3.65;;
75216;SDS011;63800;51.972;5.682;2023-03-12T02:03:34;4.85;;;3.40;;
75216;SDS011;63800;51.972;5.682;2023-03-12T02:08:30;4.55;;;3.00;;
75216;SDS011;63800;51.972;5.682;2023-03-12T02:10:59;5.45;;;3.00;;
75216;SDS011;63800;51.972;5.682;2023-03-12T02:13:24;5.88;;;3.47;;
75216;SDS011;63800;51.972;5.682;2023-03-12T02:15:51;5.78;;;3.58;;
75216;SDS011;63800;51.972;5.682;2023-03-12T02:18:17;8.15;;;3.10;;
75216;SDS011;63800;51.972;5.682;2023-03-12T02:26:39;3.95;;;3.08;;
75216;SDS011;63800;51.972;5.682;2023-03-12T02:29:05;5.53;;;3.10;;
75216;SDS011;63800;51.972;5.682;2023-03-12T02:31:34;5.90;;;3.13;;
75216;SDS011;63800;51.972;5.682;2023-03-12T02:34:05;3.53;;;2.72;;
75216;SDS011;63800;51.972;5.682;2023-03-12T02:36:30;4.63;;;2.90;;
75216;SDS011;63800;51.972;5.682;2023-03-12T02:38:55;5.63;;;2.97;;
75216;SDS011;63800;51.972;5.682;2023-03-12T02:44:05;6.38;;;3.20;;
75216;SDS011;63800;51.972;5.682;2023-03-12T02:46:40;4.63;;;2.92;;
75216;SDS011;63800;51.972;5.682;2023-03-12T02:49:18;5.60;;;2.80;;
75216;SDS011;63800;51.972;5.682;2023-03-12T02:51:46;6.93;;;3.13;;
75216;SDS011;63800;51.972;5.682;2023-03-12T02:54:13;4.90;;;3.08;;
75216;SDS011;63800;51.972;5.682;2023-03-12T02:56:40;4.50;;;2.97;;
75216;SDS011;63800;51.972;5.682;2023-03-12T02:59:06;6.70;;;3.13;;
75216;SDS011;63800;51.972;5.682;2023-03-12T03:01:32;6.32;;;2.97;;
75216;SDS011;63800;51.972;5.682;2023-03-12T03:03:59;5.03;;;3.33;;
75216;SDS011;63800;51.972;5.682;2023-03-12T03:06:25;4.22;;;3.00;;
75216;SDS011;63800;51.972;5.682;2023-03-12T03:08:51;5.97;;;3.38;;
75216;SDS011;63800;51.972;5.682;2023-03-12T03:11:16;7.00;;;3.42;;
75216;SDS011;63800;51.972;5.682;2023-03-12T03:13:42;4.88;;;3.20;;
75216;SDS011;63800;51.972;5.682;2023-03-12T03:16:08;6.35;;;3.33;;
75216;SDS011;63800;51.972;5.682;2023-03-12T03:18:33;5.60;;;3.08;;
75216;SDS011;63800;51.972;5.682;2023-03-12T03:21:06;4.45;;;2.90;;
75216;SDS011;63800;51.972;5.682;2023-03-12T03:23:33;7.03;;;3.00;;
75216;SDS011;63800;51.972;5.682;2023-03-12T03:26:00;5.93;;;3.05;;
75216;SDS011;63800;51.972;5.682;2023-03-12T03:28:26;4.43;;;3.10;;
75216;SDS011;63800;51.972;5.682;2023-03-12T03:30:54;4.22;;;2.90;;
75216;SDS011;63800;51.972;5.682;2023-03-12T03:33:25;4.35;;;3.05;;
75216;SDS011;63800;51.972;5.682;2023-03-12T03:35:52;5.13;;;3.22;;
75216;SDS011;63800;51.972;5.682;2023-03-12T03:38:19;4.72;;;3.08;;
75216;SDS011;63800;51.972;5.682;2023-03-12T03:40:45;5.85;;;3.10;;
75216;SDS011;63800;51.972;5.682;2023-03-12T03:43:11;4.03;;;3.30;;
75216;SDS011;63800;51.972;5.682;2023-03-12T03:45:36;4.30;;;3.10;;
75216;SDS011;63800;51.972;5.682;2023-03-12T03:48:01;7.70;;;3.42;;
75216;SDS011;63800;51.972;5.682;2023-03-12T03:50:27;6.50;;;3.10;;
75216;SDS011;63800;51.972;5.682;2023-03-12T03:52:53;4.80;;;3.25;;
75216;SDS011;63800;51.972;5.682;2023-03-12T03:55:18;5.32;;;3.30;;
75216;SDS011;63800;51.972;5.682;2023-03-12T03:57:44;5.55;;;3.35;;
75216;SDS011;63800;51.972;5.682;2023-03-12T04:00:10;6.43;;;3.05;;
75216;SDS011;63800;51.972;5.682;2023-03-12T04:02:37;7.68;;;3.58;;
75216;SDS011;63800;51.972;5.682;2023-03-12T04:05:03;5.85;;;3.25;;
75216;SDS011;63800;51.972;5.682;2023-03-12T04:07:28;7.07;;;3.40;;
75216;SDS011;63800;51.972;5.682;2023-03-12T04:09:54;5.05;;;3.30;;
75216;SDS011;63800;51.972;5.682;2023-03-12T04:12:21;3.72;;;3.40;;
75216;SDS011;63800;51.972;5.682;2023-03-12T04:14:49;6.15;;;3.00;;
75216;SDS011;63800;51.972;5.682;2023-03-12T04:17:16;6.70;;;3.22;;
75216;SDS011;63800;51.972;5.682;2023-03-12T04:19:41;3.92;;;3.10;;
75216;SDS011;63800;51.972;5.682;2023-03-12T04:22:07;8.57;;;3.47;;
75216;SDS011;63800;51.972;5.682;2023-03-12T04:24:32;7.13;;;3.45;;
75216;SDS011;63800;51.972;5.682;2023-03-12T04:26:57;6.63;;;3.30;;
75216;SDS011;63800;51.972;5.682;2023-03-12T04:29:23;6.40;;;3.42;;
75216;SDS011;63800;51.972;5.682;2023-03-12T04:31:49;5.25;;;3.50;;
75216;SDS011;63800;51.972;5.682;2023-03-12T04:34:14;5.55;;;3.42;;
75216;SDS011;63800;51.972;5.682;2023-03-12T04:36:40;8.93;;;3.90;;
75216;SDS011;63800;51.972;5.682;2023-03-12T04:39:06;7.32;;;4.10;;
75216;SDS011;63800;51.972;5.682;2023-03-12T04:41:32;8.88;;;4.00;;
75216;SDS011;63800;51.972;5.682;2023-03-12T04:43:58;7.68;;;4.07;;
75216;SDS011;63800;51.972;5.682;2023-03-12T04:46:24;8.02;;;4.30;;
75216;SDS011;63800;51.972;5.682;2023-03-12T04:48:49;4.65;;;3.80;;
75216;SDS011;63800;51.972;5.682;2023-03-12T04:51:15;7.15;;;4.35;;
75216;SDS011;63800;51.972;5.682;2023-03-12T04:53:40;6.85;;;4.13;;
75216;SDS011;63800;51.972;5.682;2023-03-12T04:56:06;7.10;;;3.88;;
75216;SDS011;63800;51.972;5.682;2023-03-12T04:58:31;7.78;;;4.05;;
75216;SDS011;63800;51.972;5.682;2023-03-12T05:00:57;6.75;;;3.95;;
75216;SDS011;63800;51.972;5.682;2023-03-12T05:03:22;5.03;;;3.72;;
75216;SDS011;63800;51.972;5.682;2023-03-12T05:05:48;4.55;;;3.80;;
75216;SDS011;63800;51.972;5.682;2023-03-12T05:08:13;7.05;;;4.35;;
75216;SDS011;63800;51.972;5.682;2023-03-12T05:10:39;7.70;;;4.15;;
75216;SDS011;63800;51.972;5.682;2023-03-12T05:13:11;8.07;;;4.20;;
75216;SDS011;63800;51.972;5.682;2023-03-12T05:15:40;7.35;;;3.75;;
75216;SDS011;63800;51.972;5.682;2023-03-12T05:18:06;8.40;;;4.07;;
75216;SDS011;63800;51.972;5.682;2023-03-12T05:20:31;6.82;;;3.50;;
75216;SDS011;63800;51.972;5.682;2023-03-12T05:22:57;8.18;;;4.30;;
75216;SDS011;63800;51.972;5.682;2023-03-12T05:25:23;10.50;;;4.07;;
75216;SDS011;63800;51.972;5.682;2023-03-12T05:27:48;7.85;;;4.10;;
75216;SDS011;63800;51.972;5.682;2023-03-12T05:30:14;7.55;;;4.43;;
75216;SDS011;63800;51.972;5.682;2023-03-12T05:32:39;9.07;;;3.95;;
75216;SDS011;63800;51.972;5.682;2023-03-12T05:35:05;7.95;;;4.10;;
75216;SDS011;63800;51.972;5.682;2023-03-12T05:37:31;9.18;;;4.03;;
75216;SDS011;63800;51.972;5.682;2023-03-12T05:39:56;5.93;;;3.60;;
75216;SDS011;63800;51.972;5.682;2023-03-12T05:42:22;6.78;;;3.80;;
75216;SDS011;63800;51.972;5.682;2023-03-12T05:44:49;6.15;;;4.05;;
75216;SDS011;63800;51.972;5.682;2023-03-12T05:47:15;5.72;;;4.22;;
75216;SDS011;63800;51.972;5.682;2023-03-12T05:49:41;8.40;;;4.07;;
75216;SDS011;63800;51.972;5.682;2023-03-12T05:52:06;4.95;;;3.72;;
75216;SDS011;63800;51.972;5.682;2023-03-12T05:54:32;7.72;;;4.43;;
75216;SDS011;63800;51.972;5.682;2023-03-12T05:56:57;7.00;;;4.18;;
75216;SDS011;63800;51.972;5.682;2023-03-12T05:59:23;7.63;;;4.18;;
75216;SDS011;63800;51.972;5.682;2023-03-12T06:01:49;5.53;;;3.80;;
75216;SDS011;63800;51.972;5.682;2023-03-12T06:04:14;6.43;;;3.80;;
75216;SDS011;63800;51.972;5.682;2023-03-12T06:06:39;5.03;;;3.78;;
75216;SDS011;63800;51.972;5.682;2023-03-12T06:09:05;4.95;;;3.88;;
75216;SDS011;63800;51.972;5.682;2023-03-12T06:11:32;5.93;;;3.42;;
75216;SDS011;63800;51.972;5.682;2023-03-12T06:13:59;8.50;;;4.00;;
75216;SDS011;63800;51.972;5.682;2023-03-12T06:16:25;6.00;;;3.75;;
75216;SDS011;63800;51.972;5.682;2023-03-12T06:18:52;7.40;;;3.97;;
75216;SDS011;63800;51.972;5.682;2023-03-12T06:21:22;7.03;;;3.78;;
75216;SDS011;63800;51.972;5.682;2023-03-12T06:23:50;7.78;;;3.75;;
75216;SDS011;63800;51.972;5.682;2023-03-12T06:26:16;5.65;;;3.80;;
75216;SDS011;63800;51.972;5.682;2023-03-12T06:28:43;10.00;;;4.18;;
75216;SDS011;63800;51.972;5.682;2023-03-12T06:31:09;7.05;;;3.80;;
75216;SDS011;63800;51.972;5.682;2023-03-12T06:33:35;9.10;;;3.88;;
75216;SDS011;63800;51.972;5.682;2023-03-12T06:36:01;6.22;;;3.92;;
75216;SDS011;63800;51.972;5.682;2023-03-12T06:38:29;5.53;;;3.70;;
75216;SDS011;63800;51.972;5.682;2023-03-12T06:43:20;7.60;;;3.80;;
75216;SDS011;63800;51.972;5.682;2023-03-12T06:45:45;7.40;;;4.00;;
75216;SDS011;63800;51.972;5.682;2023-03-12T06:48:11;6.47;;;3.65;;
75216;SDS011;63800;51.972;5.682;2023-03-12T06:50:36;7.40;;;4.00;;
75216;SDS011;63800;51.972;5.682;2023-03-12T06:53:02;9.02;;;4.65;;
75216;SDS011;63800;51.972;5.682;2023-03-12T06:55:27;6.63;;;4.40;;
75216;SDS011;63800;51.972;5.682;2023-03-12T06:57:56;7.82;;;4.72;;
75216;SDS011;63800;51.972;5.682;2023-03-12T07:00:21;9.55;;;5.00;;
75216;SDS011;63800;51.972;5.682;2023-03-12T07:02:47;8.98;;;4.63;;
75216;SDS011;63800;51.972;5.682;2023-03-12T07:05:12;8.40;;;4.82;;
75216;SDS011;63800;51.972;5.682;2023-03-12T07:07:37;6.13;;;4.38;;
75216;SDS011;63800;51.972;5.682;2023-03-12T07:10:03;9.57;;;4.57;;
75216;SDS011;63800;51.972;5.682;2023-03-12T07:12:30;7.28;;;4.50;;
75216;SDS011;63800;51.972;5.682;2023-03-12T07:14:56;9.02;;;4.90;;
75216;SDS011;63800;51.972;5.682;2023-03-12T07:17:22;18.42;;;6.10;;
75216;SDS011;63800;51.972;5.682;2023-03-12T07:19:49;9.50;;;5.43;;
75216;SDS011;63800;51.972;5.682;2023-03-12T07:22:15;8.15;;;4.65;;
75216;SDS011;63800;51.972;5.682;2023-03-12T07:24:41;10.73;;;4.78;;
75216;SDS011;63800;51.972;5.682;2023-03-12T07:27:06;9.90;;;4.97;;
75216;SDS011;63800;51.972;5.682;2023-03-12T07:29:32;7.22;;;4.75;;
75216;SDS011;63800;51.972;5.682;2023-03-12T07:31:57;9.38;;;4.97;;
75216;SDS011;63800;51.972;5.682;2023-03-12T07:34:23;11.50;;;5.72;;
75216;SDS011;63800;51.972;5.682;2023-03-12T07:36:48;7.93;;;5.00;;
75216;SDS011;63800;51.972;5.682;2023-03-12T07:39:13;13.23;;;5.78;;
75216;SDS011;63800;51.972;5.682;2023-03-12T07:41:39;9.32;;;5.57;;
75216;SDS011;63800;51.972;5.682;2023-03-12T07:44:04;8.93;;;6.28;;
75216;SDS011;63800;51.972;5.682;2023-03-12T07:46:30;14.82;;;6.85;;
75216;SDS011;63800;51.972;5.682;2023-03-12T07:48:56;9.82;;;6.30;;
75216;SDS011;63800;51.972;5.682;2023-03-12T07:51:21;12.27;;;6.53;;
75216;SDS011;63800;51.972;5.682;2023-03-12T07:53:46;12.90;;;6.88;;
75216;SDS011;63800;51.972;5.682;2023-03-12T07:56:12;14.05;;;7.93;;
75216;SDS011;63800;51.972;5.682;2023-03-12T07:58:38;11.55;;;6.60;;
75216;SDS011;63800;51.972;5.682;2023-03-12T08:01:06;16.80;;;8.02;;
75216;SDS011;63800;51.972;5.682;2023-03-12T08:03:32;14.60;;;7.13;;
75216;SDS011;63800;51.972;5.682;2023-03-12T08:05:58;15.27;;;7.63;;
75216;SDS011;63800;51.972;5.682;2023-03-12T08:08:25;34.38;;;10.68;;
75216;SDS011;63800;51.972;5.682;2023-03-12T08:10:51;18.25;;;8.43;;
75216;SDS011;63800;51.972;5.682;2023-03-12T08:13:17;13.27;;;8.75;;
75216;SDS011;63800;51.972;5.682;2023-03-12T08:15:43;19.25;;;9.15;;
75216;SDS011;63800;51.972;5.682;2023-03-12T08:18:08;16.05;;;8.68;;
75216;SDS011;63800;51.972;5.682;2023-03-12T08:20:34;14.00;;;8.30;;
75216;SDS011;63800;51.972;5.682;2023-03-12T08:23:00;13.57;;;8.35;;
75216;SDS011;63800;51.972;5.682;2023-03-12T08:25:26;15.18;;;7.68;;
75216;SDS011;63800;51.972;5.682;2023-03-12T08:27:52;12.98;;;7.68;;
75216;SDS011;63800;51.972;5.682;2023-03-12T08:30:18;12.57;;;7.88;;
75216;SDS011;63800;51.972;5.682;2023-03-12T08:32:43;14.25;;;7.90;;
75216;SDS011;63800;51.972;5.682;2023-03-12T08:35:09;11.32;;;6.93;;
75216;SDS011;63800;51.972;5.682;2023-03-12T08:37:35;16.15;;;8.48;;
75216;SDS011;63800;51.972;5.682;2023-03-12T08:40:00;15.82;;;8.23;;
75216;SDS011;63800;51.972;5.682;2023-03-12T08:42:28;14.32;;;8.13;;
75216;SDS011;63800;51.972;5.682;2023-03-12T08:44:54;13.73;;;8.70;;
75216;SDS011;63800;51.972;5.682;2023-03-12T08:47:19;12.80;;;8.52;;
75216;SDS011;63800;51.972;5.682;2023-03-12T08:49:45;20.65;;;9.38;;
75216;SDS011;63800;51.972;5.682;2023-03-12T08:52:10;13.23;;;8.25;;
75216;SDS011;63800;51.972;5.682;2023-03-12T08:54:36;16.55;;;8.75;;
75216;SDS011;63800;51.972;5.682;2023-03-12T08:57:01;16.98;;;8.43;;
75216;SDS011;63800;51.972;5.682;2023-03-12T08:59:27;14.88;;;8.63;;
75216;SDS011;63800;51.972;5.682;2023-03-12T09:01:52;14.73;;;9.00;;
75216;SDS011;63800;51.972;5.682;2023-03-12T09:04:18;16.52;;;8.45;;
75216;SDS011;63800;51.972;5.682;2023-03-12T09:06:43;13.57;;;8.38;;
75216;SDS011;63800;51.972;5.682;2023-03-12T09:09:09;15.18;;;9.55;;
75216;SDS011;63800;51.972;5.682;2023-03-12T09:11:35;17.65;;;8.98;;
75216;SDS011;63800;51.972;5.682;2023-03-12T09:14:03;15.27;;;9.68;;
75216;SDS011;63800;51.972;5.682;2023-03-12T09:16:29;21.88;;;10.90;;
75216;SDS011;63800;51.972;5.682;2023-03-12T09:18:54;18.73;;;10.32;;
75216;SDS011;63800;51.972;5.682;2023-03-12T09:21:20;16.42;;;10.25;;
75216;SDS011;63800;51.972;5.682;2023-03-12T09:23:46;21.27;;;11.35;;
75216;SDS011;63800;51.972;5.682;2023-03-12T09:26:13;19.58;;;11.30;;
75216;SDS011;63800;51.972;5.682;2023-03-12T09:28:38;23.42;;;11.38;;
75216;SDS011;63800;51.972;5.682;2023-03-12T09:31:04;23.50;;;12.50;;
75216;SDS011;63800;51.972;5.682;2023-03-12T09:33:30;23.88;;;13.20;;
75216;SDS011;63800;51.972;5.682;2023-03-12T09:35:57;23.95;;;12.73;;
75216;SDS011;63800;51.972;5.682;2023-03-12T09:38:23;23.25;;;12.90;;
75216;SDS011;63800;51.972;5.682;2023-03-12T09:40:49;21.85;;;11.23;;
75216;SDS011;63800;51.972;5.682;2023-03-12T09:45:56;21.15;;;10.80;;
75216;SDS011;63800;51.972;5.682;2023-03-12T09:50:57;18.02;;;10.23;;
75216;SDS011;63800;51.972;5.682;2023-03-12T09:53:39;17.45;;;10.30;;
75216;SDS011;63800;51.972;5.682;2023-03-12T09:56:15;21.83;;;11.02;;
75216;SDS011;63800;51.972;5.682;2023-03-12T09:58:43;19.45;;;10.75;;
75216;SDS011;63800;51.972;5.682;2023-03-12T10:06:34;20.08;;;11.63;;
75216;SDS011;63800;51.972;5.682;2023-03-12T10:12:10;23.60;;;11.82;;
75216;SDS011;63800;51.972;5.682;2023-03-12T10:15:19;25.80;;;13.07;;
75216;SDS011;63800;51.972;5.682;2023-03-12T10:18:50;25.65;;;12.75;;
75216;SDS011;63800;51.972;5.682;2023-03-12T10:23:48;26.10;;;13.88;;
75216;SDS011;63800;51.972;5.682;2023-03-12T10:26:57;30.30;;;15.10;;
75216;SDS011;63800;51.972;5.682;2023-03-12T10:29:27;27.23;;;13.02;;
75216;SDS011;63800;51.972;5.682;2023-03-12T10:34:26;27.33;;;14.18;;
75216;SDS011;63800;51.972;5.682;2023-03-12T10:36:55;32.83;;;15.68;;
75216;SDS011;63800;51.972;5.682;2023-03-12T10:39:24;28.15;;;14.38;;
75216;SDS011;63800;51.972;5.682;2023-03-12T10:41:50;28.17;;;15.55;;
75216;SDS011;63800;51.972;5.682;2023-03-12T10:44:18;29.17;;;14.43;;
75216;SDS011;63800;51.972;5.682;2023-03-12T10:46:54;38.38;;;17.13;;
75216;SDS011;63800;51.972;5.682;2023-03-12T10:51:56;38.03;;;17.63;;
75216;SDS011;63800;51.972;5.682;2023-03-12T10:54:30;36.83;;;17.73;;
75216;SDS011;63800;51.972;5.682;2023-03-12T10:59:31;33.08;;;15.50;;
75216;SDS011;63800;51.972;5.682;2023-03-12T11:02:02;38.30;;;15.90;;
75216;SDS011;63800;51.972;5.682;2023-03-12T11:05:24;35.10;;;16.55;;
75216;SDS011;63800;51.972;5.682;2023-03-12T11:07:52;34.42;;;15.70;;
75216;SDS011;63800;51.972;5.682;2023-03-12T11:10:25;35.90;;;15.82;;
75216;SDS011;63800;51.972;5.682;2023-03-12T11:13:03;30.95;;;13.48;;
75216;SDS011;63800;51.972;5.682;2023-03-12T11:15:43;35.38;;;14.82;;
75216;SDS011;63800;51.972;5.682;2023-03-12T11:18:23;37.15;;;15.85;;
75216;SDS011;63800;51.972;5.682;2023-03-12T11:20:56;30.80;;;14.10;;
75216;SDS011;63800;51.972;5.682;2023-03-12T11:23:27;29.55;;;14.10;;
75216;SDS011;63800;51.972;5.682;2023-03-12T11:26:01;33.58;;;14.35;;
75216;SDS011;63800;51.972;5.682;2023-03-12T11:28:36;32.15;;;12.80;;
75216;SDS011;63800;51.972;5.682;2023-03-12T11:31:10;29.92;;;12.82;;
75216;SDS011;63800;51.972;5.682;2023-03-12T11:33:44;32.63;;;12.65;;
75216;SDS011;63800;51.972;5.682;2023-03-12T11:39:00;31.33;;;12.43;;
75216;SDS011;63800;51.972;5.682;2023-03-12T11:41:36;34.50;;;13.02;;
75216;SDS011;63800;51.972;5.682;2023-03-12T11:44:24;24.85;;;12.10;;
75216;SDS011;63800;51.972;5.682;2023-03-12T11:49:50;23.60;;;10.23;;
75216;SDS011;63800;51.972;5.682;2023-03-12T12:03:26;24.95;;;10.27;;
75216;SDS011;63800;51.972;5.682;2023-03-12T12:14:41;23.67;;;8.18;;
75216;SDS011;63800;51.972;5.682;2023-03-12T12:25:58;23.83;;;7.47;;
75216;SDS011;63800;51.972;5.682;2023-03-12T12:31:18;28.58;;;8.45;;
75216;SDS011;63800;51.972;5.682;2023-03-12T12:36:33;33.50;;;7.78;;
75216;SDS011;63800;51.972;5.682;2023-03-12T12:39:01;31.67;;;8.45;;
75216;SDS011;63800;51.972;5.682;2023-03-12T12:41:33;25.33;;;7.07;;
75216;SDS011;63800;51.972;5.682;2023-03-12T12:44:09;27.42;;;7.78;;
75216;SDS011;63800;51.972;5.682;2023-03-12T12:46:38;28.05;;;7.43;;
75216;SDS011;63800;51.972;5.682;2023-03-12T12:49:18;29.80;;;7.20;;
75216;SDS011;63800;51.972;5.682;2023-03-12T12:51:54;28.65;;;7.20;;
75216;SDS011;63800;51.972;5.682;2023-03-12T12:56:54;25.77;;;7.93;;
75216;SDS011;63800;51.972;5.682;2023-03-12T12:59:26;23.83;;;6.75;;
75216;SDS011;63800;51.972;5.682;2023-03-12T13:01:59;22.35;;;6.40;;
75216;SDS011;63800;51.972;5.682;2023-03-12T13:14:54;27.17;;;6.75;;
75216;SDS011;63800;51.972;5.682;2023-03-12T13:19:58;27.58;;;6.35;;
75216;SDS011;63800;51.972;5.682;2023-03-12T13:22:39;27.17;;;6.13;;
75216;SDS011;63800;51.972;5.682;2023-03-12T13:28:35;22.08;;;6.90;;
75216;SDS011;63800;51.972;5.682;2023-03-12T13:31:02;32.85;;;6.32;;
75216;SDS011;63800;51.972;5.682;2023-03-12T13:33:47;29.55;;;5.97;;
75216;SDS011;63800;51.972;5.682;2023-03-12T13:50:03;21.50;;;4.28;;
75216;SDS011;63800;51.972;5.682;2023-03-12T13:53:00;25.85;;;5.68;;
75216;SDS011;63800;51.972;5.682;2023-03-12T13:55:33;34.78;;;6.45;;
75216;SDS011;63800;51.972;5.682;2023-03-12T13:58:12;20.25;;;5.50;;
75216;SDS011;63800;51.972;5.682;2023-03-12T14:00:47;24.85;;;5.65;;
75216;SDS011;63800;51.972;5.682;2023-03-12T14:03:27;26.70;;;4.95;;
75216;SDS011;63800;51.972;5.682;2023-03-12T14:06:22;24.33;;;4.72;;
75216;SDS011;63800;51.972;5.682;2023-03-12T14:16:45;24.55;;;4.75;;
75216;SDS011;63800;51.972;5.682;2023-03-12T14:19:16;23.00;;;5.85;;
75216;SDS011;63800;51.972;5.682;2023-03-12T14:21:47;18.48;;;4.95;;
75216;SDS011;63800;51.972;5.682;2023-03-12T14:27:17;19.23;;;4.22;;
75216;SDS011;63800;51.972;5.682;2023-03-12T14:29:56;25.98;;;4.82;;
75216;SDS011;63800;51.972;5.682;2023-03-12T14:32:30;22.58;;;5.20;;
75216;SDS011;63800;51.972;5.682;2023-03-12T14:42:53;20.27;;;4.82;;
75216;SDS011;63800;51.972;5.682;2023-03-12T14:45:23;21.27;;;5.03;;
75216;SDS011;63800;51.972;5.682;2023-03-12T14:47:54;17.38;;;4.07;;
75216;SDS011;63800;51.972;5.682;2023-03-12T14:50:25;19.65;;;4.85;;
75216;SDS011;63800;51.972;5.682;2023-03-12T14:52:54;20.00;;;4.00;;
75216;SDS011;63800;51.972;5.682;2023-03-12T14:55:24;19.02;;;4.60;;
75216;SDS011;63800;51.972;5.682;2023-03-12T14:58:13;25.10;;;4.43;;
75216;SDS011;63800;51.972;5.682;2023-03-12T15:00:41;20.23;;;4.22;;
75216;SDS011;63800;51.972;5.682;2023-03-12T15:03:11;20.73;;;3.75;;
75216;SDS011;63800;51.972;5.682;2023-03-12T15:05:47;23.20;;;5.22;;
75216;SDS011;63800;51.972;5.682;2023-03-12T15:08:13;20.23;;;4.10;;
75216;SDS011;63800;51.972;5.682;2023-03-12T15:10:39;15.80;;;3.80;;
75216;SDS011;63800;51.972;5.682;2023-03-12T15:13:11;19.83;;;4.90;;
75216;SDS011;63800;51.972;5.682;2023-03-12T15:15:45;17.08;;;4.22;;
75216;SDS011;63800;51.972;5.682;2023-03-12T15:18:12;21.60;;;4.93;;
75216;SDS011;63800;51.972;5.682;2023-03-12T15:20:41;20.02;;;4.25;;
75216;SDS011;63800;51.972;5.682;2023-03-12T15:23:08;20.92;;;4.15;;
75216;SDS011;63800;51.972;5.682;2023-03-12T15:25:36;18.27;;;3.53;;
75216;SDS011;63800;51.972;5.682;2023-03-12T15:28:07;21.90;;;4.47;;
75216;SDS011;63800;51.972;5.682;2023-03-12T15:33:58;18.55;;;4.00;;
75216;SDS011;63800;51.972;5.682;2023-03-12T15:36:29;20.33;;;4.60;;
75216;SDS011;63800;51.972;5.682;2023-03-12T15:38:57;16.48;;;4.15;;
75216;SDS011;63800;51.972;5.682;2023-03-12T15:44:15;21.52;;;4.32;;
75216;SDS011;63800;51.972;5.682;2023-03-12T15:47:05;23.98;;;4.90;;
75216;SDS011;63800;51.972;5.682;2023-03-12T15:49:35;24.15;;;4.70;;
75216;SDS011;63800;51.972;5.682;2023-03-12T15:57:24;16.50;;;4.50;;
75216;SDS011;63800;51.972;5.682;2023-03-12T16:02:47;14.85;;;3.88;;
75216;SDS011;63800;51.972;5.682;2023-03-12T16:05:15;19.90;;;4.38;;
75216;SDS011;63800;51.972;5.682;2023-03-12T16:07:43;19.02;;;4.35;;
75216;SDS011;63800;51.972;5.682;2023-03-12T16:10:12;19.27;;;4.78;;
75216;SDS011;63800;51.972;5.682;2023-03-12T16:12:40;23.25;;;5.32;;
75216;SDS011;63800;51.972;5.682;2023-03-12T16:15:11;23.55;;;4.32;;
75216;SDS011;63800;51.972;5.682;2023-03-12T16:17:38;20.38;;;4.50;;
75216;SDS011;63800;51.972;5.682;2023-03-12T16:20:04;23.88;;;4.90;;
75216;SDS011;63800;51.972;5.682;2023-03-12T16:22:30;23.50;;;4.18;;
75216;SDS011;63800;51.972;5.682;2023-03-12T16:24:55;21.35;;;4.97;;
75216;SDS011;63800;51.972;5.682;2023-03-12T16:27:21;25.80;;;5.40;;
75216;SDS011;63800;51.972;5.682;2023-03-12T16:29:46;24.65;;;7.80;;
75216;SDS011;63800;51.972;5.682;2023-03-12T16:32:13;31.10;;;6.15;;
75216;SDS011;63800;51.972;5.682;2023-03-12T16:34:40;21.23;;;5.18;;
75216;SDS011;63800;51.972;5.682;2023-03-12T16:37:12;23.45;;;4.70;;
75216;SDS011;63800;51.972;5.682;2023-03-12T16:39:38;22.80;;;5.67;;
75216;SDS011;63800;51.972;5.682;2023-03-12T16:42:04;22.98;;;5.55;;
75216;SDS011;63800;51.972;5.682;2023-03-12T16:44:38;20.10;;;4.75;;
75216;SDS011;63800;51.972;5.682;2023-03-12T16:47:08;25.42;;;5.68;;
75216;SDS011;63800;51.972;5.682;2023-03-12T16:49:37;20.47;;;4.43;;
75216;SDS011;63800;51.972;5.682;2023-03-12T16:54:59;22.50;;;5.15;;
75216;SDS011;63800;51.972;5.682;2023-03-12T16:57:35;24.83;;;5.40;;
75216;SDS011;63800;51.972;5.682;2023-03-12T17:00:04;19.58;;;4.85;;
75216;SDS011;63800;51.972;5.682;2023-03-12T17:02:32;25.15;;;5.13;;
75216;SDS011;63800;51.972;5.682;2023-03-12T17:04:59;26.40;;;4.53;;
75216;SDS011;63800;51.972;5.682;2023-03-12T17:07:25;19.67;;;5.18;;
75216;SDS011;63800;51.972;5.682;2023-03-12T17:09:50;25.25;;;4.88;;
75216;SDS011;63800;51.972;5.682;2023-03-12T17:12:21;22.35;;;4.40;;
75216;SDS011;63800;51.972;5.682;2023-03-12T17:14:53;21.75;;;4.65;;
75216;SDS011;63800;51.972;5.682;2023-03-12T17:17:18;27.70;;;6.10;;
75216;SDS011;63800;51.972;5.682;2023-03-12T17:19:47;22.67;;;5.57;;